• Join FlightAware (Why Join?)
  • Login
  • US Flag 
03:47PM EDT


 

Airport Tracker/Info


-or-


 

Live Flight TrackerFlight Track Log ✈ N589H ✈ 10-Apr-2014 ✈ KPIE - KAPF

Flight Track Log - Related Links

Times and Time Zones

All times are in EDT time to prevent confusion due to time zone crossing. See the N589H flight status page for this flight to view local times or setup timezone preferences in your user account.

Time Position Orientation Groundspeed Altitude Reporting Facility
EDT Latitude Longitude Course Direction KTS MPH feet Rate Location/Type
08:12AM 27.9333 -82.6833 270° West 149 171 600  Level Tampa TRACON
08:12AM 27.9333 -82.7167 312° West 169 194 1,300 1,560 Climbing Tampa TRACON
08:13AM 27.9167 -82.7500 241° Southwest 189 217 3,100 1,740 Climbing Tampa TRACON
08:14AM 27.8667 -82.7500 180° South 168 193 4,800 1,800 Climbing Tampa TRACON
08:15AM 27.8167 -82.7500 180° South 189 217 6,600 1,680 Climbing Tampa TRACON
08:16AM 27.7667 -82.7333 164° South 209 241 8,200 1,800 Climbing Tampa TRACON
08:17AM 27.7000 -82.7167 168° South 218 251 10,200 1,380 Climbing Tampa TRACON
08:18AM 27.6500 -82.6833 149° Southeast 244 281 11,000 360 Climbing Tampa TRACON
08:19AM 27.5667 -82.6500 160° South 312 359 11,000  Level Tampa TRACON
08:20AM 27.5000 -82.6000 146° Southeast 323 372 11,000  Level Tampa TRACON
08:21AM 27.4333 -82.5333 138° Southeast 313 360 11,000 -60 Level Tampa TRACON
08:23AM 27.3222 -82.4075 135° Southeast 303 349 10,900 -60 Descending Miami Center
08:24AM 27.2625 -82.3414 135° Southeast 303 349 10,900 60 Level Miami Center
08:25AM 27.1894 -82.2642 137° Southeast 303 349 11,100  Climbing Miami Center
08:26AM 27.1119 -82.2311 159° South 305 351 11,000 -60 Descending Miami Center
08:27AM 27.0350 -82.1950 157° South 302 348 11,000 -300 Level Miami Center
08:28AM 26.9486 -82.1533 157° South 308 354 10,500 -540 Descending Miami Center
08:29AM 26.8714 -82.1164 157° South 305 351 10,000 -780 Descending Miami Center
08:30AM 26.7903 -82.0781 157° South 296 341 9,000 -1,500 Descending Miami Center
08:31AM 26.7161 -82.0425 157° South 296 341 7,000 -1,980 Descending Miami Center
08:32AM 26.6439 -82.0081 157° South 263 303 5,000 -1,020 Descending Miami Center
08:33AM 26.5819 -81.9783 157° South 250 288 5,000  Level Miami Center
08:34AM 26.5111 -81.9442 157° South 256 295 5,000 -300 Level Miami Center
08:35AM 26.4453 -81.9131 157° South 259 298 4,500 -1,020 Descending Miami Center
08:36AM 26.3761 -81.8811 158° South 253 291 3,000 -780 Descending Miami Center
08:37AM 26.3142 -81.8517 157° South 246 283 3,000 -300 Level Miami Center
08:38AM 26.2383 -81.8347 169° South 259 298 2,400 -720 Descending Miami Center
08:39AM 26.1869 -81.8250 170° South 191 220 1,600 -660 Descending Miami Center
08:40AM 26.1467 -81.8214 175° South 138 159 1,100 -660 Descending Miami Center
08:42AM 26.1361 -81.7922 112° Southeast 116 133 300 -480 Descending Miami Center
08:43AM 26.1558 -81.7678 48° Northeast 115 132 200 -120 Descending Miami Center